Information Last Ob Photographs Calibration Meteogram Network Table Neighbors Monthly Summaries Observation History Wind Roses Custom Wind Roses Data Calendar Satellite Cloud Product Download

23 February 2024 Observation History, [AXA] ALGONA, timezone: America/Chicago

Select Date: Time Order:

Show METARs   Show High Frequency MADIS

Previous Day
Time Wind
(mph)
Vis.
(mi.)
Sky Cond.
(100s ft)
Present Wx Temperature (ºF) Relative
Humidity
Pressure Snow
Depth
(in)
Precipitation (in.)
Air Dwpt Feels Like 6 hour altimeter
(in.)
sea level
(mb)
1 hr 3 hr 6 hr
Max.Min.
12:15 AMW 1010 CLR
282819 100% 29.820
KAXA 230615Z AUTO 27009KT 10SM CLR M02/M02 A2982 RMK A01
12:35 AMW 1010 CLR
282819 100% 29.820
KAXA 230635Z AUTO 27009KT 10SM CLR M02/M02 A2982 RMK A01
12:55 AMW 1010 CLR
303021 100% 29.820
KAXA 230655Z AUTO 27009KT 10SM CLR M01/M01 A2982 RMK A01
1:15 AMW 99 CLR
282820 100% 29.810
KAXA 230715Z AUTO 27008KT 9SM CLR M02/M02 A2981 RMK A01
1:35 AMW 108 CLR
2830 108% 29.810
KAXA 230735Z AUTO 27009KT 8SM CLR M02/M01 A2981 RMK A01
1:55 AMW 1010 CLR
303021 100% 29.80
KAXA 230755Z AUTO 27009KT 10SM CLR M01/M01 A2980 RMK A01
2:15 AMW 910 CLR
323224 100% 29.80
KAXA 230815Z AUTO 26008KT 10SM CLR M00/M00 A2980 RMK A01
2:35 AMWSW 99 CLR
303022 100% 29.790
KAXA 230835Z AUTO 24008KT 9SM CLR M01/M01 A2979 RMK A01
2:55 AMWSW 99 CLR
303022 100% 29.780
KAXA 230855Z AUTO 24008KT 9SM CLR M01/M01 A2978 RMK A01
3:15 AMSW 109 CLR
303021 100% 29.770
KAXA 230915Z AUTO 23009KT 9SM CLR M01/M01 A2977 RMK A01
3:35 AMSW 1210 CLR
303021 100% 29.770
KAXA 230935Z AUTO 23010KT 10SM CLR M01/M01 A2977 RMK A01
3:55 AMSW 910 CLR
282820 100% 29.760
KAXA 230955Z AUTO 23008KT 10SM CLR M02/M02 A2976 RMK A01
4:15 AMSW 109 CLR
282819 100% 29.760
KAXA 231015Z AUTO 22009KT 9SM CLR M02/M02 A2976 RMK A01
4:35 AMSW 98 CLR
282820 100% 29.740
KAXA 231035Z AUTO 23008KT 8SM CLR M02/M02 A2974 RMK A01
4:55 AMSW 1010 CLR
282819 100% 29.730
KAXA 231055Z AUTO 23009KT 10SM CLR M02/M02 A2973 RMK A01
5:15 AMWSW 1010 CLR
2830 108% 29.740
KAXA 231115Z AUTO 24009KT 10SM CLR M02/M01 A2974 RMK A01
5:35 AMW 1310 CLR
323222 100% 29.740
KAXA 231135Z AUTO 27011KT 10SM CLR M00/M00 A2974 RMK A01
5:55 AMW 1410 CLR
323022 93% 29.740
KAXA 231155Z AUTO 27012KT 10SM CLR M00/M01 A2974 RMK A01
6:15 AMW 1310 CLR
323022 93% 29.730
KAXA 231215Z AUTO 28011KT 10SM CLR M00/M01 A2973 RMK A01
6:35 AMW 1510 CLR
323222 100% 29.740
KAXA 231235Z AUTO 28013KT 10SM CLR 00/M00 A2974 RMK A01
6:55 AMWNW 1310 CLR
323022 93% 29.740
KAXA 231255Z AUTO 29011KT 10SM CLR M00/M01 A2974 RMK A01
7:15 AMWNW 810 CLR
323025 93% 29.740
KAXA 231315Z AUTO 29007KT 10SM CLR M00/M01 A2974 RMK A01
7:35 AMW 1210 CLR
323223 100% 29.750
KAXA 231335Z AUTO 28010KT 10SM CLR M00/M00 A2975 RMK A01
7:55 AMW 1310 CLR
343225 93% 29.750
KAXA 231355Z AUTO 28011KT 10SM CLR 01/M00 A2975 RMK A01
8:15 AMWNW 1310 CLR
343225 93% 29.750
KAXA 231415Z AUTO 29011KT 10SM CLR 01/00 A2975 RMK A01
8:35 AMWNW 1310 CLR
363427 93% 29.760
KAXA 231435Z AUTO 30011KT 10SM CLR 02/01 A2976 RMK A01
8:55 AMNW 1710 CLR
393430 81% 29.770
KAXA 231455Z AUTO 31015KT 10SM CLR 04/01 A2977 RMK A01
9:15 AMNW 1810 CLR
393430 81% 29.770
KAXA 231515Z AUTO 31016KT 10SM CLR 04/01 A2977 RMK A01
9:35 AMNW 1810 CLR
413432 75% 29.770
KAXA 231535Z AUTO 31016KT 10SM CLR 05/01 A2977 RMK A01
9:55 AMNW 20G 2610 CLR
413432 75% 29.770
KAXA 231555Z AUTO 32017G23KT 10SM CLR 05/01 A2977 RMK A01
10:15 AMNW 2410 CLR
433433 70% 29.780
KAXA 231615Z AUTO 31021KT 10SM CLR 06/01 A2978 RMK A01
10:35 AMNNW 17G 3110 CLR
433235 65% 29.780
KAXA 231635Z AUTO 33015G27KT 10SM CLR 06/00 A2978 RMK A01
10:55 AMNNW 20G 3010 CLR
433234 65% 29.790
KAXA 231655Z AUTO 34017G26KT 10SM CLR 06/M00 A2979 RMK A01
11:15 AMNNW 18G 2810 FEW024
433234 65% 29.790
KAXA 231715Z AUTO 33016G24KT 10SM FEW024 06/00 A2979 RMK A01
11:35 AMNNW 2110 SCT026
453236 61% 29.80
KAXA 231735Z AUTO 34018KT 10SM SCT026 07/M00 A2980 RMK A01
11:55 AMNNW 20G 2910 SCT028
433034 61% 29.80
KAXA 231755Z AUTO 34017G25KT 10SM SCT028 06/M01 A2980 RMK A01
12:15 PMNNW 17G 2810 FEW031
432835 56% 29.810
KAXA 231815Z AUTO 33015G24KT 10SM FEW031 06/M02 A2981 RMK A01
12:30 PMNNW 22G 3210 FEW032
452836 53% 29.810
KAXA 231830Z AUTO 33019G28KT 10SM FEW032 07/M02 A2981 RMK A01
12:55 PMNNW 21G 3110 FEW038
452836 53% 29.80
KAXA 231855Z AUTO 34018G27KT 10SM FEW038 07/M02 A2980 RMK A01
1:15 PMNW 16G 2810 FEW037
432735 52% 29.810
KAXA 231915Z AUTO 32014G24KT 10SM FEW037 06/M03 A2981 RMK A01
1:35 PMNNW 2110 FEW037
432734 52% 29.80
KAXA 231935Z AUTO 34018KT 10SM FEW037 06/M03 A2980 RMK A01
1:55 PMNNW 22G 2810 SCT037
432734 52% 29.810
KAXA 231955Z AUTO 33019G24KT 10SM SCT037 06/M03 A2981 RMK A01
2:15 PMNNW 18G 2810 BKN037
432734 52% 29.820
KAXA 232015Z AUTO 34016G24KT 10SM BKN037 06/M03 A2982 RMK A01
2:35 PMNNW 2310 BKN037
412731 56% 29.820
KAXA 232035Z AUTO 34020KT 10SM BKN037 05/M03 A2982 RMK A01
2:55 PMN 18G 3010 BKN037
BKN042
412732 56% 29.830
KAXA 232055Z AUTO 35016G26KT 10SM BKN037 BKN042 05/M03 A2983 RMK A01
3:15 PMN 20G 2910 OVC036
412732 56% 29.850
KAXA 232115Z AUTO 35017G25KT 10SM OVC036 05/M03 A2985 RMK A01
3:35 PMNNW 17G 2510 BKN035
392730 60% 29.850
KAXA 232135Z AUTO 34015G22KT 10SM BKN035 04/M03 A2985 RMK A01
3:55 PMN 20G 2610 FEW029
FEW038
392830 65% 29.860
KAXA 232155Z AUTO 35017G23KT 10SM FEW029 FEW038 04/M02 A2986 RMK A01
4:15 PMNNW 2110 SCT034
SCT040
392729 60% 29.860
KAXA 232215Z AUTO 34018KT 10SM SCT034 SCT040 04/M03 A2986 RMK A01
4:35 PMNNW 1810 OVC033
392730 60% 29.880
KAXA 232235Z AUTO 34016KT 10SM OVC033 04/M03 A2988 RMK A01

The IEM API webservice that provided data to this page. For more details, see documentation.

Data Notes

  • For recent years, this page also optionally shows observations from the MADIS High Frequency METAR dataset. This dataset had a problem with temperatures detailed here.